sensor_id;sensor_type;location;lat;lon;timestamp;P1;durP1;ratioP1;P2;durP2;ratioP2
75649;SDS011;64245;51.282;22.494;2022-11-21T00:00:57;36.47;;;12.40;;
75649;SDS011;64245;51.282;22.494;2022-11-21T00:03:23;36.30;;;13.40;;
75649;SDS011;64245;51.282;22.494;2022-11-21T00:05:50;40.90;;;14.45;;
75649;SDS011;64245;51.282;22.494;2022-11-21T00:08:17;32.95;;;11.82;;
75649;SDS011;64245;51.282;22.494;2022-11-21T00:10:45;30.98;;;11.95;;
75649;SDS011;64245;51.282;22.494;2022-11-21T00:13:20;41.15;;;13.25;;
75649;SDS011;64245;51.282;22.494;2022-11-21T00:18:12;40.08;;;13.30;;
75649;SDS011;64245;51.282;22.494;2022-11-21T00:20:39;41.10;;;11.75;;
75649;SDS011;64245;51.282;22.494;2022-11-21T00:23:08;37.53;;;12.63;;
75649;SDS011;64245;51.282;22.494;2022-11-21T00:25:35;38.05;;;13.13;;
75649;SDS011;64245;51.282;22.494;2022-11-21T00:28:01;37.28;;;13.15;;
75649;SDS011;64245;51.282;22.494;2022-11-21T00:30:28;37.45;;;12.32;;
75649;SDS011;64245;51.282;22.494;2022-11-21T00:32:53;36.25;;;12.35;;
75649;SDS011;64245;51.282;22.494;2022-11-21T00:35:19;31.67;;;12.70;;
75649;SDS011;64245;51.282;22.494;2022-11-21T00:37:46;37.33;;;13.55;;
75649;SDS011;64245;51.282;22.494;2022-11-21T00:40:13;43.83;;;13.38;;
75649;SDS011;64245;51.282;22.494;2022-11-21T00:42:39;24.35;;;9.38;;
75649;SDS011;64245;51.282;22.494;2022-11-21T00:45:05;30.98;;;12.13;;
75649;SDS011;64245;51.282;22.494;2022-11-21T00:47:31;36.70;;;13.27;;
75649;SDS011;64245;51.282;22.494;2022-11-21T00:49:57;37.03;;;13.52;;
75649;SDS011;64245;51.282;22.494;2022-11-21T00:52:22;37.33;;;13.98;;
75649;SDS011;64245;51.282;22.494;2022-11-21T00:54:48;36.45;;;11.75;;
75649;SDS011;64245;51.282;22.494;2022-11-21T00:57:14;40.35;;;14.05;;
75649;SDS011;64245;51.282;22.494;2022-11-21T00:59:40;35.72;;;12.80;;
75649;SDS011;64245;51.282;22.494;2022-11-21T01:02:06;37.05;;;12.52;;
75649;SDS011;64245;51.282;22.494;2022-11-21T01:04:32;31.50;;;10.95;;
75649;SDS011;64245;51.282;22.494;2022-11-21T01:06:59;38.25;;;15.77;;
75649;SDS011;64245;51.282;22.494;2022-11-21T01:09:25;37.33;;;18.05;;
75649;SDS011;64245;51.282;22.494;2022-11-21T01:11:51;46.40;;;17.17;;
75649;SDS011;64245;51.282;22.494;2022-11-21T01:14:16;45.83;;;15.05;;
75649;SDS011;64245;51.282;22.494;2022-11-21T01:16:42;40.95;;;14.30;;
75649;SDS011;64245;51.282;22.494;2022-11-21T01:19:08;42.72;;;15.57;;
75649;SDS011;64245;51.282;22.494;2022-11-21T01:21:34;42.95;;;16.02;;
75649;SDS011;64245;51.282;22.494;2022-11-21T01:24:00;41.95;;;15.75;;
75649;SDS011;64245;51.282;22.494;2022-11-21T01:26:28;34.58;;;14.00;;
75649;SDS011;64245;51.282;22.494;2022-11-21T01:28:57;36.88;;;14.73;;
75649;SDS011;64245;51.282;22.494;2022-11-21T01:31:27;39.92;;;15.25;;
75649;SDS011;64245;51.282;22.494;2022-11-21T01:33:56;39.42;;;15.18;;
75649;SDS011;64245;51.282;22.494;2022-11-21T01:36:27;46.33;;;15.95;;
75649;SDS011;64245;51.282;22.494;2022-11-21T01:38:56;40.90;;;14.68;;
75649;SDS011;64245;51.282;22.494;2022-11-21T01:41:25;43.97;;;15.13;;
75649;SDS011;64245;51.282;22.494;2022-11-21T01:43:58;37.67;;;14.10;;
75649;SDS011;64245;51.282;22.494;2022-11-21T01:46:25;38.88;;;14.32;;
75649;SDS011;64245;51.282;22.494;2022-11-21T01:49:05;35.95;;;14.32;;
75649;SDS011;64245;51.282;22.494;2022-11-21T01:51:41;40.03;;;15.13;;
75649;SDS011;64245;51.282;22.494;2022-11-21T01:56:46;39.67;;;16.05;;
75649;SDS011;64245;51.282;22.494;2022-11-21T01:59:29;40.08;;;16.08;;
75649;SDS011;64245;51.282;22.494;2022-11-21T02:02:02;42.55;;;14.27;;
75649;SDS011;64245;51.282;22.494;2022-11-21T02:04:31;45.28;;;16.00;;
75649;SDS011;64245;51.282;22.494;2022-11-21T02:07:00;46.55;;;17.48;;
75649;SDS011;64245;51.282;22.494;2022-11-21T02:09:28;32.35;;;13.20;;
75649;SDS011;64245;51.282;22.494;2022-11-21T02:11:57;41.45;;;16.15;;
75649;SDS011;64245;51.282;22.494;2022-11-21T02:14:27;37.15;;;14.20;;
75649;SDS011;64245;51.282;22.494;2022-11-21T02:16:54;42.20;;;17.83;;
75649;SDS011;64245;51.282;22.494;2022-11-21T02:19:49;48.95;;;17.33;;
75649;SDS011;64245;51.282;22.494;2022-11-21T02:25:14;30.35;;;11.70;;
75649;SDS011;64245;51.282;22.494;2022-11-21T02:27:46;48.60;;;17.55;;
75649;SDS011;64245;51.282;22.494;2022-11-21T02:30:14;46.15;;;17.45;;
75649;SDS011;64245;51.282;22.494;2022-11-21T02:32:42;44.22;;;16.73;;
75649;SDS011;64245;51.282;22.494;2022-11-21T02:35:12;43.85;;;16.42;;
75649;SDS011;64245;51.282;22.494;2022-11-21T02:37:39;45.85;;;17.60;;
75649;SDS011;64245;51.282;22.494;2022-11-21T02:40:09;48.42;;;18.23;;
75649;SDS011;64245;51.282;22.494;2022-11-21T02:43:00;42.25;;;17.17;;
75649;SDS011;64245;51.282;22.494;2022-11-21T02:48:13;37.20;;;15.75;;
75649;SDS011;64245;51.282;22.494;2022-11-21T02:50:40;48.33;;;16.88;;
75649;SDS011;64245;51.282;22.494;2022-11-21T02:53:09;43.13;;;17.77;;
75649;SDS011;64245;51.282;22.494;2022-11-21T02:55:37;47.47;;;18.33;;
75649;SDS011;64245;51.282;22.494;2022-11-21T02:58:03;43.65;;;18.58;;
75649;SDS011;64245;51.282;22.494;2022-11-21T03:00:30;47.90;;;17.75;;
75649;SDS011;64245;51.282;22.494;2022-11-21T03:02:56;39.28;;;15.00;;
75649;SDS011;64245;51.282;22.494;2022-11-21T03:05:22;45.85;;;16.48;;
75649;SDS011;64245;51.282;22.494;2022-11-21T03:07:48;48.45;;;18.63;;
75649;SDS011;64245;51.282;22.494;2022-11-21T03:10:14;48.83;;;18.02;;
75649;SDS011;64245;51.282;22.494;2022-11-21T03:12:41;46.03;;;17.67;;
75649;SDS011;64245;51.282;22.494;2022-11-21T03:15:10;45.90;;;17.55;;
75649;SDS011;64245;51.282;22.494;2022-11-21T03:17:38;45.92;;;18.10;;
75649;SDS011;64245;51.282;22.494;2022-11-21T03:20:04;41.28;;;17.63;;
75649;SDS011;64245;51.282;22.494;2022-11-21T03:22:31;52.22;;;19.50;;
75649;SDS011;64245;51.282;22.494;2022-11-21T03:24:58;51.50;;;18.70;;
75649;SDS011;64245;51.282;22.494;2022-11-21T03:27:23;44.40;;;17.60;;
75649;SDS011;64245;51.282;22.494;2022-11-21T03:29:50;46.33;;;18.98;;
75649;SDS011;64245;51.282;22.494;2022-11-21T03:32:15;47.67;;;18.65;;
75649;SDS011;64245;51.282;22.494;2022-11-21T03:34:41;46.88;;;17.92;;
75649;SDS011;64245;51.282;22.494;2022-11-21T03:37:07;48.47;;;18.33;;
75649;SDS011;64245;51.282;22.494;2022-11-21T03:39:33;43.92;;;18.50;;
75649;SDS011;64245;51.282;22.494;2022-11-21T03:41:59;46.15;;;17.75;;
75649;SDS011;64245;51.282;22.494;2022-11-21T03:44:25;44.00;;;17.48;;
75649;SDS011;64245;51.282;22.494;2022-11-21T03:46:50;51.30;;;18.90;;
75649;SDS011;64245;51.282;22.494;2022-11-21T03:49:16;46.47;;;17.13;;
75649;SDS011;64245;51.282;22.494;2022-11-21T03:51:43;48.83;;;17.38;;
75649;SDS011;64245;51.282;22.494;2022-11-21T03:54:10;40.17;;;17.38;;
75649;SDS011;64245;51.282;22.494;2022-11-21T03:56:36;48.33;;;18.30;;
75649;SDS011;64245;51.282;22.494;2022-11-21T03:59:04;47.45;;;18.30;;
75649;SDS011;64245;51.282;22.494;2022-11-21T04:01:30;42.25;;;17.05;;
75649;SDS011;64245;51.282;22.494;2022-11-21T04:03:56;44.65;;;18.90;;
75649;SDS011;64245;51.282;22.494;2022-11-21T04:06:22;49.65;;;17.85;;
75649;SDS011;64245;51.282;22.494;2022-11-21T04:08:48;48.20;;;17.90;;
75649;SDS011;64245;51.282;22.494;2022-11-21T04:11:14;52.42;;;18.02;;
75649;SDS011;64245;51.282;22.494;2022-11-21T04:13:41;45.17;;;16.55;;
75649;SDS011;64245;51.282;22.494;2022-11-21T04:16:06;48.45;;;19.10;;
75649;SDS011;64245;51.282;22.494;2022-11-21T04:18:33;49.58;;;16.98;;
75649;SDS011;64245;51.282;22.494;2022-11-21T04:21:02;45.42;;;17.50;;
75649;SDS011;64245;51.282;22.494;2022-11-21T04:23:30;43.92;;;16.83;;
75649;SDS011;64245;51.282;22.494;2022-11-21T04:25:56;46.15;;;18.67;;
75649;SDS011;64245;51.282;22.494;2022-11-21T04:28:22;50.00;;;19.58;;
75649;SDS011;64245;51.282;22.494;2022-11-21T04:30:48;46.33;;;17.98;;
75649;SDS011;64245;51.282;22.494;2022-11-21T04:33:15;43.40;;;17.10;;
75649;SDS011;64245;51.282;22.494;2022-11-21T04:35:42;43.80;;;16.48;;
75649;SDS011;64245;51.282;22.494;2022-11-21T04:38:09;48.70;;;16.55;;
75649;SDS011;64245;51.282;22.494;2022-11-21T04:40:35;45.08;;;17.60;;
75649;SDS011;64245;51.282;22.494;2022-11-21T04:43:01;35.92;;;13.65;;
75649;SDS011;64245;51.282;22.494;2022-11-21T04:45:27;41.60;;;13.95;;
75649;SDS011;64245;51.282;22.494;2022-11-21T04:47:53;43.70;;;16.88;;
75649;SDS011;64245;51.282;22.494;2022-11-21T04:50:19;43.30;;;18.17;;
75649;SDS011;64245;51.282;22.494;2022-11-21T04:52:53;49.90;;;18.77;;
75649;SDS011;64245;51.282;22.494;2022-11-21T04:55:20;51.30;;;17.80;;
75649;SDS011;64245;51.282;22.494;2022-11-21T04:57:48;44.97;;;16.67;;
75649;SDS011;64245;51.282;22.494;2022-11-21T05:00:15;47.15;;;17.85;;
75649;SDS011;64245;51.282;22.494;2022-11-21T05:02:42;38.95;;;15.63;;
75649;SDS011;64245;51.282;22.494;2022-11-21T05:05:08;46.85;;;16.15;;
75649;SDS011;64245;51.282;22.494;2022-11-21T05:07:34;44.95;;;16.00;;
75649;SDS011;64245;51.282;22.494;2022-11-21T05:10:00;42.53;;;16.70;;
75649;SDS011;64245;51.282;22.494;2022-11-21T05:12:26;47.55;;;16.77;;
75649;SDS011;64245;51.282;22.494;2022-11-21T05:15:10;42.65;;;15.45;;
75649;SDS011;64245;51.282;22.494;2022-11-21T05:17:36;47.00;;;16.65;;
75649;SDS011;64245;51.282;22.494;2022-11-21T05:20:02;43.67;;;16.00;;
75649;SDS011;64245;51.282;22.494;2022-11-21T05:22:28;41.72;;;15.57;;
75649;SDS011;64245;51.282;22.494;2022-11-21T05:24:54;44.30;;;16.25;;
75649;SDS011;64245;51.282;22.494;2022-11-21T05:27:21;45.47;;;16.70;;
75649;SDS011;64245;51.282;22.494;2022-11-21T05:29:46;50.60;;;19.30;;
75649;SDS011;64245;51.282;22.494;2022-11-21T05:32:13;45.13;;;15.68;;
75649;SDS011;64245;51.282;22.494;2022-11-21T05:34:38;47.50;;;15.75;;
75649;SDS011;64245;51.282;22.494;2022-11-21T05:37:04;54.05;;;17.67;;
75649;SDS011;64245;51.282;22.494;2022-11-21T05:39:30;43.17;;;16.27;;
75649;SDS011;64245;51.282;22.494;2022-11-21T05:41:56;52.20;;;17.05;;
75649;SDS011;64245;51.282;22.494;2022-11-21T05:44:22;48.40;;;16.08;;
75649;SDS011;64245;51.282;22.494;2022-11-21T05:46:48;49.03;;;16.80;;
75649;SDS011;64245;51.282;22.494;2022-11-21T05:49:13;54.65;;;16.65;;
75649;SDS011;64245;51.282;22.494;2022-11-21T05:51:39;54.72;;;20.17;;
75649;SDS011;64245;51.282;22.494;2022-11-21T05:54:05;43.42;;;15.90;;
75649;SDS011;64245;51.282;22.494;2022-11-21T05:56:31;42.22;;;15.20;;
75649;SDS011;64245;51.282;22.494;2022-11-21T05:58:57;49.33;;;17.10;;
75649;SDS011;64245;51.282;22.494;2022-11-21T06:01:24;49.38;;;16.67;;
75649;SDS011;64245;51.282;22.494;2022-11-21T06:04:08;43.17;;;14.90;;
75649;SDS011;64245;51.282;22.494;2022-11-21T06:06:35;43.53;;;15.75;;
75649;SDS011;64245;51.282;22.494;2022-11-21T06:09:14;47.45;;;15.98;;
75649;SDS011;64245;51.282;22.494;2022-11-21T06:11:40;36.35;;;15.13;;
75649;SDS011;64245;51.282;22.494;2022-11-21T06:14:06;42.90;;;14.45;;
75649;SDS011;64245;51.282;22.494;2022-11-21T06:16:32;37.03;;;13.27;;
75649;SDS011;64245;51.282;22.494;2022-11-21T06:18:58;38.83;;;13.77;;
75649;SDS011;64245;51.282;22.494;2022-11-21T06:21:24;38.42;;;14.88;;
75649;SDS011;64245;51.282;22.494;2022-11-21T06:23:53;41.22;;;15.35;;
75649;SDS011;64245;51.282;22.494;2022-11-21T06:26:21;39.08;;;14.10;;
75649;SDS011;64245;51.282;22.494;2022-11-21T06:28:49;41.97;;;14.45;;
75649;SDS011;64245;51.282;22.494;2022-11-21T06:31:20;44.17;;;14.52;;
75649;SDS011;64245;51.282;22.494;2022-11-21T06:33:50;41.28;;;14.95;;
75649;SDS011;64245;51.282;22.494;2022-11-21T06:36:17;43.25;;;14.60;;
75649;SDS011;64245;51.282;22.494;2022-11-21T06:38:43;45.88;;;15.85;;
75649;SDS011;64245;51.282;22.494;2022-11-21T06:41:11;49.83;;;15.48;;
75649;SDS011;64245;51.282;22.494;2022-11-21T06:43:39;45.70;;;16.15;;
75649;SDS011;64245;51.282;22.494;2022-11-21T06:46:05;40.15;;;13.35;;
75649;SDS011;64245;51.282;22.494;2022-11-21T06:48:32;49.22;;;17.05;;
75649;SDS011;64245;51.282;22.494;2022-11-21T06:51:06;41.10;;;16.33;;
75649;SDS011;64245;51.282;22.494;2022-11-21T06:53:35;34.67;;;11.43;;
75649;SDS011;64245;51.282;22.494;2022-11-21T06:56:01;45.22;;;16.75;;
75649;SDS011;64245;51.282;22.494;2022-11-21T06:58:27;44.63;;;15.38;;
75649;SDS011;64245;51.282;22.494;2022-11-21T07:00:54;41.20;;;14.75;;
75649;SDS011;64245;51.282;22.494;2022-11-21T07:03:20;36.67;;;15.07;;
75649;SDS011;64245;51.282;22.494;2022-11-21T07:05:47;43.15;;;14.88;;
75649;SDS011;64245;51.282;22.494;2022-11-21T07:08:13;42.58;;;14.80;;
75649;SDS011;64245;51.282;22.494;2022-11-21T07:10:39;41.17;;;14.82;;
75649;SDS011;64245;51.282;22.494;2022-11-21T07:13:05;51.97;;;17.92;;
75649;SDS011;64245;51.282;22.494;2022-11-21T07:15:48;39.08;;;15.38;;
75649;SDS011;64245;51.282;22.494;2022-11-21T07:18:15;42.83;;;15.85;;
75649;SDS011;64245;51.282;22.494;2022-11-21T07:20:41;41.67;;;14.90;;
75649;SDS011;64245;51.282;22.494;2022-11-21T07:23:07;37.08;;;14.25;;
75649;SDS011;64245;51.282;22.494;2022-11-21T07:25:33;36.80;;;14.07;;
75649;SDS011;64245;51.282;22.494;2022-11-21T07:28:01;40.67;;;14.70;;
75649;SDS011;64245;51.282;22.494;2022-11-21T07:30:28;48.67;;;16.10;;
75649;SDS011;64245;51.282;22.494;2022-11-21T07:32:57;45.00;;;15.70;;
75649;SDS011;64245;51.282;22.494;2022-11-21T07:35:24;38.40;;;14.40;;
75649;SDS011;64245;51.282;22.494;2022-11-21T07:37:51;47.28;;;14.48;;
75649;SDS011;64245;51.282;22.494;2022-11-21T07:40:17;47.63;;;18.00;;
75649;SDS011;64245;51.282;22.494;2022-11-21T07:42:44;50.08;;;16.45;;
75649;SDS011;64245;51.282;22.494;2022-11-21T07:45:10;44.95;;;16.33;;
75649;SDS011;64245;51.282;22.494;2022-11-21T07:47:37;39.10;;;13.60;;
75649;SDS011;64245;51.282;22.494;2022-11-21T07:50:06;53.92;;;16.70;;
75649;SDS011;64245;51.282;22.494;2022-11-21T07:52:33;57.05;;;18.80;;
75649;SDS011;64245;51.282;22.494;2022-11-21T07:54:59;34.20;;;13.35;;
75649;SDS011;64245;51.282;22.494;2022-11-21T07:57:27;40.83;;;15.30;;
75649;SDS011;64245;51.282;22.494;2022-11-21T07:59:53;48.70;;;15.85;;
75649;SDS011;64245;51.282;22.494;2022-11-21T08:02:23;55.97;;;16.73;;
75649;SDS011;64245;51.282;22.494;2022-11-21T08:04:50;56.65;;;18.20;;
75649;SDS011;64245;51.282;22.494;2022-11-21T08:07:18;55.72;;;18.70;;
75649;SDS011;64245;51.282;22.494;2022-11-21T08:09:46;57.47;;;18.85;;
75649;SDS011;64245;51.282;22.494;2022-11-21T08:12:12;54.17;;;17.13;;
75649;SDS011;64245;51.282;22.494;2022-11-21T08:14:39;56.83;;;18.73;;
75649;SDS011;64245;51.282;22.494;2022-11-21T08:17:05;56.90;;;20.77;;
75649;SDS011;64245;51.282;22.494;2022-11-21T08:19:32;54.88;;;19.50;;
75649;SDS011;64245;51.282;22.494;2022-11-21T08:21:58;37.15;;;15.27;;
75649;SDS011;64245;51.282;22.494;2022-11-21T08:24:24;49.45;;;16.90;;
75649;SDS011;64245;51.282;22.494;2022-11-21T08:26:50;44.35;;;15.60;;
75649;SDS011;64245;51.282;22.494;2022-11-21T08:29:17;50.45;;;16.92;;
75649;SDS011;64245;51.282;22.494;2022-11-21T08:31:43;44.15;;;16.35;;
75649;SDS011;64245;51.282;22.494;2022-11-21T08:34:09;48.45;;;17.48;;
75649;SDS011;64245;51.282;22.494;2022-11-21T08:36:36;36.63;;;13.05;;
75649;SDS011;64245;51.282;22.494;2022-11-21T08:39:02;49.05;;;18.67;;
75649;SDS011;64245;51.282;22.494;2022-11-21T08:41:28;36.92;;;15.15;;
75649;SDS011;64245;51.282;22.494;2022-11-21T08:44:13;45.17;;;15.98;;
75649;SDS011;64245;51.282;22.494;2022-11-21T08:46:39;54.80;;;18.35;;
75649;SDS011;64245;51.282;22.494;2022-11-21T08:49:05;44.00;;;16.85;;
75649;SDS011;64245;51.282;22.494;2022-11-21T08:51:32;46.95;;;16.58;;
75649;SDS011;64245;51.282;22.494;2022-11-21T08:53:59;44.80;;;16.48;;
75649;SDS011;64245;51.282;22.494;2022-11-21T08:56:25;43.70;;;16.98;;
75649;SDS011;64245;51.282;22.494;2022-11-21T08:58:51;49.85;;;18.67;;
75649;SDS011;64245;51.282;22.494;2022-11-21T09:01:17;43.38;;;16.92;;
75649;SDS011;64245;51.282;22.494;2022-11-21T09:03:43;44.40;;;17.25;;
75649;SDS011;64245;51.282;22.494;2022-11-21T09:06:09;44.92;;;17.38;;
75649;SDS011;64245;51.282;22.494;2022-11-21T09:08:35;42.95;;;15.45;;
75649;SDS011;64245;51.282;22.494;2022-11-21T09:11:04;48.30;;;18.00;;
75649;SDS011;64245;51.282;22.494;2022-11-21T09:13:32;43.25;;;17.27;;
75649;SDS011;64245;51.282;22.494;2022-11-21T09:15:59;42.80;;;15.93;;
75649;SDS011;64245;51.282;22.494;2022-11-21T09:18:43;39.33;;;14.95;;
75649;SDS011;64245;51.282;22.494;2022-11-21T09:21:13;38.83;;;15.05;;
75649;SDS011;64245;51.282;22.494;2022-11-21T09:23:41;40.22;;;17.45;;
75649;SDS011;64245;51.282;22.494;2022-11-21T09:26:07;36.95;;;15.95;;
75649;SDS011;64245;51.282;22.494;2022-11-21T09:28:33;40.35;;;15.13;;
75649;SDS011;64245;51.282;22.494;2022-11-21T09:31:03;43.33;;;17.40;;
75649;SDS011;64245;51.282;22.494;2022-11-21T09:33:30;50.80;;;18.63;;
75649;SDS011;64245;51.282;22.494;2022-11-21T09:35:59;46.20;;;17.73;;
75649;SDS011;64245;51.282;22.494;2022-11-21T09:38:26;40.38;;;16.92;;
75649;SDS011;64245;51.282;22.494;2022-11-21T09:44:24;54.85;;;18.65;;
75649;SDS011;64245;51.282;22.494;2022-11-21T09:46:58;41.65;;;15.43;;
75649;SDS011;64245;51.282;22.494;2022-11-21T09:49:32;49.65;;;17.77;;
75649;SDS011;64245;51.282;22.494;2022-11-21T09:52:07;35.58;;;12.10;;
75649;SDS011;64245;51.282;22.494;2022-11-21T09:54:37;34.35;;;13.38;;
75649;SDS011;64245;51.282;22.494;2022-11-21T09:57:11;39.42;;;15.73;;
75649;SDS011;64245;51.282;22.494;2022-11-21T09:59:42;35.75;;;14.82;;
75649;SDS011;64245;51.282;22.494;2022-11-21T10:02:14;36.10;;;15.90;;
75649;SDS011;64245;51.282;22.494;2022-11-21T10:04:50;37.25;;;16.02;;
75649;SDS011;64245;51.282;22.494;2022-11-21T10:07:24;40.55;;;15.32;;
75649;SDS011;64245;51.282;22.494;2022-11-21T10:18:01;41.78;;;16.15;;
75649;SDS011;64245;51.282;22.494;2022-11-21T10:31:15;38.58;;;16.80;;
75649;SDS011;64245;51.282;22.494;2022-11-21T10:33:42;36.28;;;16.83;;
75649;SDS011;64245;51.282;22.494;2022-11-21T10:36:15;37.47;;;16.77;;
75649;SDS011;64245;51.282;22.494;2022-11-21T10:41:18;33.60;;;15.80;;
75649;SDS011;64245;51.282;22.494;2022-11-21T10:44:08;36.03;;;16.65;;
75649;SDS011;64245;51.282;22.494;2022-11-21T10:47:11;32.85;;;13.60;;
75649;SDS011;64245;51.282;22.494;2022-11-21T10:49:39;33.65;;;14.52;;
75649;SDS011;64245;51.282;22.494;2022-11-21T10:52:15;35.10;;;15.43;;
75649;SDS011;64245;51.282;22.494;2022-11-21T10:55:07;33.42;;;15.77;;
75649;SDS011;64245;51.282;22.494;2022-11-21T10:57:37;36.60;;;16.33;;
75649;SDS011;64245;51.282;22.494;2022-11-21T11:02:40;33.92;;;13.73;;
75649;SDS011;64245;51.282;22.494;2022-11-21T11:05:20;31.23;;;13.25;;
75649;SDS011;64245;51.282;22.494;2022-11-21T11:07:58;30.85;;;13.45;;
75649;SDS011;64245;51.282;22.494;2022-11-21T11:10:25;27.05;;;12.30;;
75649;SDS011;64245;51.282;22.494;2022-11-21T11:12:52;33.60;;;14.23;;
75649;SDS011;64245;51.282;22.494;2022-11-21T11:15:36;27.67;;;12.90;;
75649;SDS011;64245;51.282;22.494;2022-11-21T11:18:18;31.30;;;15.98;;
75649;SDS011;64245;51.282;22.494;2022-11-21T11:20:46;27.65;;;13.73;;
75649;SDS011;64245;51.282;22.494;2022-11-21T11:25:51;27.60;;;12.70;;
75649;SDS011;64245;51.282;22.494;2022-11-21T11:28:25;20.35;;;11.40;;
75649;SDS011;64245;51.282;22.494;2022-11-21T11:30:57;23.42;;;11.60;;
75649;SDS011;64245;51.282;22.494;2022-11-21T11:38:56;16.17;;;8.00;;
75649;SDS011;64245;51.282;22.494;2022-11-21T11:44:08;20.15;;;8.52;;
75649;SDS011;64245;51.282;22.494;2022-11-21T11:47:07;21.00;;;9.95;;
75649;SDS011;64245;51.282;22.494;2022-11-21T11:53:10;16.73;;;7.50;;
75649;SDS011;64245;51.282;22.494;2022-11-21T11:58:17;20.75;;;8.68;;
75649;SDS011;64245;51.282;22.494;2022-11-21T12:01:05;15.65;;;7.30;;
75649;SDS011;64245;51.282;22.494;2022-11-21T12:06:15;18.98;;;9.70;;
75649;SDS011;64245;51.282;22.494;2022-11-21T12:09:02;21.23;;;9.50;;
75649;SDS011;64245;51.282;22.494;2022-11-21T12:17:30;21.50;;;9.30;;
75649;SDS011;64245;51.282;22.494;2022-11-21T12:20:04;21.38;;;9.55;;
75649;SDS011;64245;51.282;22.494;2022-11-21T12:22:39;25.13;;;10.13;;
75649;SDS011;64245;51.282;22.494;2022-11-21T12:25:11;22.83;;;10.63;;
75649;SDS011;64245;51.282;22.494;2022-11-21T12:27:39;18.70;;;8.50;;
75649;SDS011;64245;51.282;22.494;2022-11-21T12:32:51;21.15;;;10.45;;
75649;SDS011;64245;51.282;22.494;2022-11-21T12:40:59;26.67;;;12.02;;
75649;SDS011;64245;51.282;22.494;2022-11-21T12:47:10;27.25;;;12.02;;
75649;SDS011;64245;51.282;22.494;2022-11-21T12:53:06;33.00;;;13.40;;
75649;SDS011;64245;51.282;22.494;2022-11-21T12:56:20;29.88;;;12.25;;
75649;SDS011;64245;51.282;22.494;2022-11-21T12:58:57;31.08;;;12.23;;
75649;SDS011;64245;51.282;22.494;2022-11-21T13:07:10;31.67;;;13.02;;
75649;SDS011;64245;51.282;22.494;2022-11-21T13:09:38;29.40;;;12.20;;
75649;SDS011;64245;51.282;22.494;2022-11-21T13:12:11;25.48;;;12.27;;
75649;SDS011;64245;51.282;22.494;2022-11-21T13:14:52;29.55;;;13.40;;
75649;SDS011;64245;51.282;22.494;2022-11-21T13:18:15;25.55;;;10.70;;
75649;SDS011;64245;51.282;22.494;2022-11-21T13:20:45;32.20;;;12.43;;
75649;SDS011;64245;51.282;22.494;2022-11-21T13:25:59;32.33;;;13.05;;
75649;SDS011;64245;51.282;22.494;2022-11-21T13:28:29;28.63;;;12.95;;
75649;SDS011;64245;51.282;22.494;2022-11-21T13:30:57;31.77;;;13.55;;
75649;SDS011;64245;51.282;22.494;2022-11-21T13:36:12;34.28;;;15.30;;
75649;SDS011;64245;51.282;22.494;2022-11-21T14:09:03;31.67;;;14.00;;
75649;SDS011;64245;51.282;22.494;2022-11-21T14:14:46;36.67;;;13.48;;
75649;SDS011;64245;51.282;22.494;2022-11-21T14:17:38;37.78;;;14.65;;
75649;SDS011;64245;51.282;22.494;2022-11-21T14:20:11;37.65;;;14.05;;
75649;SDS011;64245;51.282;22.494;2022-11-21T14:22:43;37.63;;;16.23;;
75649;SDS011;64245;51.282;22.494;2022-11-21T14:25:18;37.58;;;14.23;;
75649;SDS011;64245;51.282;22.494;2022-11-21T14:27:46;33.00;;;13.95;;
75649;SDS011;64245;51.282;22.494;2022-11-21T14:35:54;35.65;;;14.23;;
75649;SDS011;64245;51.282;22.494;2022-11-21T14:38:26;33.33;;;13.23;;
75649;SDS011;64245;51.282;22.494;2022-11-21T14:43:47;18.13;;;6.82;;
75649;SDS011;64245;51.282;22.494;2022-11-21T14:46:15;19.42;;;7.80;;
75649;SDS011;64245;51.282;22.494;2022-11-21T14:48:44;32.45;;;10.82;;
75649;SDS011;64245;51.282;22.494;2022-11-21T14:51:10;27.05;;;11.23;;
75649;SDS011;64245;51.282;22.494;2022-11-21T14:53:41;28.30;;;10.38;;
75649;SDS011;64245;51.282;22.494;2022-11-21T14:56:09;33.08;;;12.93;;
75649;SDS011;64245;51.282;22.494;2022-11-21T14:58:37;26.50;;;11.10;;
75649;SDS011;64245;51.282;22.494;2022-11-21T15:01:06;33.08;;;12.63;;
75649;SDS011;64245;51.282;22.494;2022-11-21T15:03:56;30.85;;;11.63;;
75649;SDS011;64245;51.282;22.494;2022-11-21T15:06:26;30.50;;;10.68;;
75649;SDS011;64245;51.282;22.494;2022-11-21T15:09:00;30.58;;;11.73;;
75649;SDS011;64245;51.282;22.494;2022-11-21T15:11:29;31.27;;;12.18;;
75649;SDS011;64245;51.282;22.494;2022-11-21T15:14:02;35.13;;;12.98;;
75649;SDS011;64245;51.282;22.494;2022-11-21T15:16:43;33.70;;;12.43;;
75649;SDS011;64245;51.282;22.494;2022-11-21T15:19:16;24.85;;;9.88;;
75649;SDS011;64245;51.282;22.494;2022-11-21T15:21:45;38.38;;;15.13;;
75649;SDS011;64245;51.282;22.494;2022-11-21T15:24:18;43.10;;;16.27;;
75649;SDS011;64245;51.282;22.494;2022-11-21T15:46:04;34.60;;;13.75;;
75649;SDS011;64245;51.282;22.494;2022-11-21T15:48:41;37.70;;;13.32;;
75649;SDS011;64245;51.282;22.494;2022-11-21T15:51:09;39.40;;;14.40;;
75649;SDS011;64245;51.282;22.494;2022-11-21T15:53:36;33.25;;;12.27;;
75649;SDS011;64245;51.282;22.494;2022-11-21T15:56:02;33.45;;;12.48;;
75649;SDS011;64245;51.282;22.494;2022-11-21T15:58:29;42.85;;;14.63;;
75649;SDS011;64245;51.282;22.494;2022-11-21T16:00:54;39.28;;;13.82;;
75649;SDS011;64245;51.282;22.494;2022-11-21T16:03:21;37.33;;;14.35;;
75649;SDS011;64245;51.282;22.494;2022-11-21T16:05:46;45.47;;;15.90;;
75649;SDS011;64245;51.282;22.494;2022-11-21T16:08:12;39.15;;;14.80;;
75649;SDS011;64245;51.282;22.494;2022-11-21T16:10:38;39.28;;;16.48;;
75649;SDS011;64245;51.282;22.494;2022-11-21T16:13:04;39.70;;;13.75;;
75649;SDS011;64245;51.282;22.494;2022-11-21T16:15:29;42.15;;;14.93;;
75649;SDS011;64245;51.282;22.494;2022-11-21T16:17:55;41.92;;;15.00;;
75649;SDS011;64245;51.282;22.494;2022-11-21T16:20:21;41.47;;;13.63;;
75649;SDS011;64245;51.282;22.494;2022-11-21T16:22:47;42.58;;;16.08;;
75649;SDS011;64245;51.282;22.494;2022-11-21T16:25:13;54.28;;;19.13;;
75649;SDS011;64245;51.282;22.494;2022-11-21T16:27:40;39.35;;;15.38;;
75649;SDS011;64245;51.282;22.494;2022-11-21T16:30:05;38.40;;;14.48;;
75649;SDS011;64245;51.282;22.494;2022-11-21T16:32:32;42.70;;;15.50;;
75649;SDS011;64245;51.282;22.494;2022-11-21T16:34:57;40.17;;;14.63;;
75649;SDS011;64245;51.282;22.494;2022-11-21T16:37:23;35.45;;;13.95;;
75649;SDS011;64245;51.282;22.494;2022-11-21T16:39:49;43.40;;;13.55;;
75649;SDS011;64245;51.282;22.494;2022-11-21T16:42:18;38.38;;;13.15;;
75649;SDS011;64245;51.282;22.494;2022-11-21T16:44:44;42.53;;;14.40;;
75649;SDS011;64245;51.282;22.494;2022-11-21T16:47:10;40.83;;;14.50;;
75649;SDS011;64245;51.282;22.494;2022-11-21T16:49:38;39.80;;;14.35;;
75649;SDS011;64245;51.282;22.494;2022-11-21T16:52:09;36.08;;;13.05;;